Time;durP1;ratioP1;P1;durP2;ratioP2;P2;SDS_P1;SDS_P2;PMS_P1;PMS_P2;Temp;Humidity;BMP_temperature;BMP_pressure;BME280_temperature;BME280_humidity;BME280_pressure;Samples;Min_cycle;Max_cycle;Signal;HPM_P1;HPM_P2
2022/07/28 00:04:49;;;;;;;2.57;1.57;;;;;;;20.46;53.43;96468.94;10363619;28;20350;-26
2022/07/28 00:09:50;;;;;;;2.10;1.30;;;;;;;20.42;52.77;96461.34;10360517;28;20512;-25
2022/07/28 00:14:50;;;;;;;2.10;1.30;;;;;;;20.43;53.16;96467.25;10365402;28;20046;-25
2022/07/28 00:19:50;;;;;;;4.60;1.47;;;;;;;20.42;53.31;96457.09;10372015;28;20033;-25
2022/07/28 00:24:51;;;;;;;2.97;1.30;;;;;;;20.34;53.62;96455.53;10367705;28;20277;-25
2022/07/28 00:29:51;;;;;;;3.13;1.57;;;;;;;20.27;53.38;96453.91;10369431;28;20037;-25
2022/07/28 00:34:51;;;;;;;3.73;1.50;;;;;;;20.20;53.61;96457.38;10370048;28;20038;-25
2022/07/28 00:39:52;;;;;;;3.60;2.00;;;;;;;20.30;53.24;96449.63;10365836;28;20052;-26
2022/07/28 00:44:52;;;;;;;1.97;1.30;;;;;;;20.30;52.86;96448.75;10370119;28;20280;-25
2022/07/28 00:49:54;;;;;;;3.47;1.53;;;;;;;20.33;52.49;96438.59;10368523;28;20034;-25
2022/07/28 00:54:56;;;;;;;2.47;1.30;;;;;;;20.28;52.67;96448.78;10369115;28;20034;-25
2022/07/28 00:59:57;;;;;;;3.13;1.48;;;;;;;20.22;52.83;96438.69;10370770;28;20033;-25
2022/07/28 01:04:57;;;;;;;2.13;1.50;;;;;;;20.27;52.70;96433.56;10365657;28;20068;-26
2022/07/28 01:10:27;;;;;;;3.13;1.20;;;;;;;20.09;53.28;96438.84;10370769;28;20034;-27
2022/07/28 01:15:36;;;;;;;4.88;1.30;;;;;;;20.12;53.32;96433.72;10367525;28;20030;-26
2022/07/28 01:20:46;;;;;;;2.28;1.25;;;;;;;20.02;53.27;96432.13;10367578;28;20061;-25
2022/07/28 01:26:07;;;;;;;5.22;1.65;;;;;;;19.93;53.17;96432.22;10369699;28;20559;-25
2022/07/28 01:31:11;;;;;;;6.68;1.60;;;;;;;19.90;53.83;96438.16;10365934;28;20053;-25
2022/07/28 01:36:22;;;;;;;4.38;1.50;;;;;;;19.93;53.70;96435.56;10366607;28;20029;-25
2022/07/28 01:41:26;;;;;;;1.95;1.77;;;;;;;19.84;53.91;96422.97;10369617;28;20099;-25
2022/07/28 01:46:28;;;;;;;3.97;1.35;;;;;;;19.72;53.69;96437.47;10364917;28;20042;-26
2022/07/28 01:51:32;;;;;;;2.97;1.52;;;;;;;19.74;54.10;96431.53;10364616;28;20046;-25
2022/07/28 01:56:33;;;;;;;2.85;1.30;;;;;;;19.75;54.31;96435.75;10370324;28;20037;-26
2022/07/28 02:01:37;;;;;;;3.17;1.48;;;;;;;19.70;54.36;96429.03;10360618;28;20072;-26
2022/07/28 02:06:40;;;;;;;4.75;1.30;;;;;;;19.64;54.60;96422.34;10366461;28;20037;-26
2022/07/28 02:11:41;;;;;;;4.25;1.10;;;;;;;19.56;54.76;96408.88;10368670;28;20492;-26
2022/07/28 02:16:47;;;;;;;2.60;1.75;;;;;;;19.57;54.93;96407.16;10364730;28;20061;-26
2022/07/28 02:21:49;;;;;;;3.10;1.35;;;;;;;19.58;54.46;96406.31;10366141;28;20133;-26
2022/07/28 02:26:57;;;;;;;4.75;1.63;;;;;;;19.49;54.66;96397.06;10367674;28;20801;-26
2022/07/28 02:32:07;;;;;;;1.40;1.27;;;;;;;19.49;54.51;96401.31;10366245;28;20161;-26
2022/07/28 02:37:10;;;;;;;3.88;1.20;;;;;;;19.46;54.76;96399.66;10363784;28;20054;-26
2022/07/28 02:42:25;;;;;;;2.20;1.55;;;;;;;19.53;54.61;96402.97;10367968;28;20034;-26
2022/07/28 02:47:27;;;;;;;1.45;1.25;;;;;;;19.44;54.46;96400.50;10365836;28;20524;-26
2022/07/28 02:52:28;;;;;;;2.10;1.40;;;;;;;19.46;54.83;96396.25;10362476;28;20034;-25
2022/07/28 02:57:30;;;;;;;4.35;1.90;;;;;;;19.38;54.93;96398.00;10366751;28;20095;-26
2022/07/28 03:02:32;;;;;;;4.10;1.88;;;;;;;19.34;55.10;96398.91;10360925;28;20038;-26
2022/07/28 03:07:35;;;;;;;2.55;1.90;;;;;;;19.39;55.39;96392.94;10365016;28;20038;-25
2022/07/28 03:12:35;;;;;;;3.45;1.60;;;;;;;19.32;55.14;96401.47;10362073;28;20045;-26
2022/07/28 03:17:35;;;;;;;2.00;1.43;;;;;;;19.30;55.29;96410.78;10364086;28;20042;-25
2022/07/28 03:22:36;;;;;;;3.63;2.07;;;;;;;19.31;55.44;96409.06;10363484;28;20037;-26
2022/07/28 03:27:40;;;;;;;3.72;1.83;;;;;;;19.32;55.13;96406.53;10365234;28;20034;-26
2022/07/28 03:32:45;;;;;;;3.15;1.70;;;;;;;19.25;55.30;96409.97;10363118;28;20034;-26
2022/07/28 03:37:57;;;;;;;2.22;1.60;;;;;;;19.28;55.41;96419.25;10362424;28;20026;-25
2022/07/28 03:43:06;;;;;;;4.20;2.08;;;;;;;19.18;55.83;96418.44;10362240;28;20029;-25
2022/07/28 03:48:07;;;;;;;2.88;2.10;;;;;;;19.19;55.97;96421.88;10360189;28;20034;-26
2022/07/28 03:53:20;;;;;;;3.67;1.80;;;;;;;19.07;56.34;96416.84;10358330;28;20407;-25
2022/07/28 03:58:24;;;;;;;2.80;2.08;;;;;;;19.07;55.97;96414.28;10366130;28;20052;-26
2022/07/28 04:03:25;;;;;;;5.55;2.33;;;;;;;19.09;56.15;96423.59;10356407;28;20109;-26
2022/07/28 04:08:26;;;;;;;4.00;2.40;;;;;;;19.25;55.92;96429.44;10363355;28;20034;-26
2022/07/28 04:13:26;;;;;;;3.27;2.13;;;;;;;19.43;55.04;96434.38;10363588;28;20492;-26
2022/07/28 04:18:27;;;;;;;3.77;2.00;;;;;;;19.49;55.05;96429.25;10362534;28;20300;-25
2022/07/28 04:23:27;;;;;;;3.45;2.03;;;;;;;19.44;55.39;96436.88;10361641;28;20038;-26
2022/07/28 04:28:28;;;;;;;4.60;2.10;;;;;;;19.45;55.30;96442.81;10364329;28;20034;-25
2022/07/28 04:33:29;;;;;;;3.17;1.98;;;;;;;19.52;54.94;96431.75;10363135;28;20309;-26
2022/07/28 04:38:29;;;;;;;2.97;1.90;;;;;;;19.46;55.46;96432.66;10361380;28;20034;-26
2022/07/28 04:43:30;;;;;;;4.47;2.27;;;;;;;19.39;55.49;96435.22;10363931;28;20036;-25
2022/07/28 04:48:31;;;;;;;3.17;1.80;;;;;;;19.61;55.33;96434.22;10361931;28;20029;-26
2022/07/28 04:53:31;;;;;;;6.43;1.97;;;;;;;20.56;52.45;96427.25;10360196;28;20038;-26
2022/07/28 04:58:31;;;;;;;4.60;2.00;;;;;;;20.81;52.04;96419.25;10368233;28;20542;-26
2022/07/28 05:03:32;;;;;;;6.70;1.93;;;;;;;20.90;51.58;96419.16;10365664;28;20285;-26
2022/07/28 05:08:32;;;;;;;5.10;2.27;;;;;;;20.94;51.72;96420.81;10370538;28;20042;-26
2022/07/28 05:13:33;;;;;;;5.70;2.10;;;;;;;20.83;51.81;96404.00;10368953;28;20096;-26
2022/07/28 05:18:34;;;;;;;3.70;2.20;;;;;;;20.93;52.21;96419.13;10368376;28;20384;-26
2022/07/28 05:23:34;;;;;;;3.97;2.50;;;;;;;20.99;52.45;96419.03;10364980;28;20109;-26
2022/07/28 05:28:34;;;;;;;3.10;2.47;;;;;;;21.11;51.99;96418.88;10369115;28;20619;-26
2022/07/28 05:33:35;;;;;;;4.20;2.33;;;;;;;21.04;52.16;96417.28;10370122;28;20052;-25
2022/07/28 05:38:36;;;;;;;3.42;2.90;;;;;;;21.05;52.80;96418.94;10367484;28;20089;-25
2022/07/28 05:43:37;;;;;;;8.48;3.50;;;;;;;21.12;52.37;96415.44;10366699;28;20038;-26
2022/07/28 05:48:37;;;;;;;7.90;3.03;;;;;;;21.16;51.88;96416.25;10369603;28;20562;-26
2022/07/28 05:53:37;;;;;;;9.13;3.13;;;;;;;21.00;52.78;96420.75;10364908;28;20045;-26
2022/07/28 05:58:38;;;;;;;4.87;2.80;;;;;;;20.84;52.91;96419.25;10369248;28;20060;-26
2022/07/28 06:03:38;;;;;;;5.33;2.73;;;;;;;20.90;52.91;96418.34;10362761;28;20045;-26
2022/07/28 06:08:39;;;;;;;4.83;2.63;;;;;;;20.88;52.85;96420.06;10363656;28;20170;-26
2022/07/28 06:13:39;;;;;;;7.47;2.47;;;;;;;21.11;52.38;96418.88;10365709;28;20347;-26
2022/07/28 06:18:39;;;;;;;4.23;2.13;;;;;;;21.08;52.49;96418.94;10368446;28;20048;-26
2022/07/28 06:23:40;;;;;;;4.03;2.07;;;;;;;21.15;52.08;96425.59;10365436;28;20559;-26
2022/07/28 06:28:40;;;;;;;4.63;1.80;;;;;;;21.19;51.91;96421.28;10366079;28;20095;-25
2022/07/28 06:33:40;;;;;;;4.73;2.17;;;;;;;21.26;51.68;96418.63;10367460;28;20189;-25
2022/07/28 06:38:41;;;;;;;6.03;2.37;;;;;;;21.27;51.47;96429.66;10364374;28;20038;-25
2022/07/28 06:43:41;;;;;;;4.60;1.87;;;;;;;21.20;51.63;96423.81;10365081;28;20114;-26
2022/07/28 06:48:44;;;;;;;5.50;1.93;;;;;;;21.15;51.99;96435.75;10367339;28;20049;-26
2022/07/28 06:53:47;;;;;;;5.68;1.38;;;;;;;21.17;51.92;96428.97;10363250;28;20048;-26
2022/07/28 06:58:47;;;;;;;3.85;1.70;;;;;;;21.20;51.48;96428.06;10366945;28;20515;-26
2022/07/28 07:03:47;;;;;;;7.47;1.80;;;;;;;21.21;51.52;96430.59;10359765;28;20045;-26
2022/07/28 07:08:48;;;;;;;5.83;1.90;;;;;;;21.20;51.83;96428.91;10365232;28;20096;-26
2022/07/28 07:13:48;;;;;;;4.37;1.67;;;;;;;21.32;51.57;96427.88;10365818;28;20386;-26
2022/07/28 07:18:51;;;;;;;3.63;1.83;;;;;;;21.37;51.54;96421.84;10364734;28;20297;-26
2022/07/28 07:23:52;;;;;;;6.10;2.10;;;;;;;21.50;51.44;96422.50;10363098;28;20491;-25
2022/07/28 07:28:52;;;;;;;5.43;1.70;;;;;;;21.40;51.50;96419.25;10366063;28;20042;-25
2022/07/28 07:33:52;;;;;;;7.17;1.80;;;;;;;21.26;51.51;96400.81;10363110;28;20053;-26
2022/07/28 07:38:53;;;;;;;5.17;2.30;;;;;;;21.26;52.00;96416.09;10363127;28;20802;-26
2022/07/28 07:43:53;;;;;;;2.40;1.67;;;;;;;21.29;52.35;96423.66;10364671;28;20563;-26
2022/07/28 07:48:54;;;;;;;4.13;1.77;;;;;;;21.27;52.40;96417.78;10364189;28;20029;-25
2022/07/28 07:53:54;;;;;;;3.33;1.70;;;;;;;21.33;51.90;96411.72;10361441;28;20292;-26
2022/07/28 07:58:55;;;;;;;5.67;1.80;;;;;;;21.40;51.68;96410.78;10365420;28;20038;-25
2022/07/28 08:03:57;;;;;;;7.18;1.90;;;;;;;21.35;51.82;96408.31;10321732;28;20034;-26
2022/07/28 08:08:57;;;;;;;2.00;1.45;;;;;;;21.41;50.98;96395.44;10314807;28;20095;-27
2022/07/28 08:13:57;;;;;;;3.40;1.73;;;;;;;21.43;51.24;96401.38;10316325;28;20574;-25
2022/07/28 08:18:58;;;;;;;4.47;1.50;;;;;;;21.42;51.64;96404.78;10319367;28;20036;-26
2022/07/28 08:23:58;;;;;;;3.25;1.50;;;;;;;21.42;51.62;96394.59;10315349;28;20040;-26
2022/07/28 08:28:59;;;;;;;2.17;1.50;;;;;;;21.45;51.41;96389.44;10312625;28;20059;-27
2022/07/28 08:34:00;;;;;;;5.27;1.53;;;;;;;21.49;51.37;96396.16;10321494;28;20048;-26
2022/07/28 08:39:00;;;;;;;2.75;1.52;;;;;;;21.40;51.70;96393.78;10320766;28;20511;-27
2022/07/28 08:44:02;;;;;;;2.40;1.57;;;;;;;21.55;51.47;96397.78;10318519;28;20026;-28
2022/07/28 08:49:08;;;;;;;4.95;2.13;;;;;;;21.58;51.67;96401.13;10334428;28;20041;-26
2022/07/28 08:54:12;;;;;;;4.53;1.95;;;;;;;21.64;51.32;96395.91;10330369;28;20034;-25
2022/07/28 08:59:13;;;;;;;5.43;1.70;;;;;;;21.76;50.72;96398.28;10337867;28;20046;-26
2022/07/28 09:04:14;;;;;;;7.28;2.00;;;;;;;21.71;51.58;96391.59;10336436;28;20046;-26
2022/07/28 09:09:14;;;;;;;5.82;1.63;;;;;;;21.58;51.63;96385.84;10278022;28;21123;-25
2022/07/28 09:14:15;;;;;;;5.43;2.17;;;;;;;21.64;51.77;96395.91;10315139;28;20044;-25
2022/07/28 09:19:15;;;;;;;3.77;1.77;;;;;;;21.49;52.62;96391.06;10318195;28;20956;-26
2022/07/28 09:24:37;;;;;;;6.80;1.63;;;;;;;21.45;52.60;96394.53;10320017;28;20488;-25
2022/07/28 09:29:40;;;;;;;7.03;2.17;;;;;;;21.40;52.89;96387.84;10316381;28;20037;-25
2022/07/28 09:34:43;;;;;;;2.97;1.50;;;;;;;21.42;53.19;96389.50;10319817;28;20041;-25
2022/07/28 09:39:44;;;;;;;4.18;2.10;;;;;;;21.41;52.70;96382.72;10316203;28;20041;-25
2022/07/28 09:45:00;;;;;;;4.80;1.98;;;;;;;21.56;52.35;96384.19;10365294;28;20689;-25
2022/07/28 09:50:01;;;;;;;5.03;1.93;;;;;;;21.61;52.60;96379.81;10363233;28;20048;-25
2022/07/28 09:55:04;;;;;;;5.25;2.03;;;;;;;21.51;54.08;96384.25;10361946;28;20320;-25
2022/07/28 10:00:10;;;;;;;10.60;2.47;;;;;;;21.45;54.72;96381.81;10359796;28;20064;-26
2022/07/28 10:05:15;;;;;;;7.65;2.38;;;;;;;21.43;54.43;96378.47;10358930;28;20440;-26
2022/07/28 10:10:19;;;;;;;6.72;1.88;;;;;;;21.43;53.94;96381.00;10368980;28;20033;-26
2022/07/28 10:20:39;;;;;;;4.10;2.30;;;;;;;21.40;53.96;96375.94;10366210;28;20557;-26
2022/07/28 10:25:39;;;;;;;4.20;2.25;;;;;;;21.38;54.26;96376.84;10355379;28;20121;-25
2022/07/28 10:30:40;;;;;;;3.72;2.10;;;;;;;21.54;53.85;96366.38;10357404;28;20026;-26
2022/07/28 10:35:45;;;;;;;8.13;1.80;;;;;;;21.64;53.65;96378.06;10320666;28;20045;-26
2022/07/28 10:40:47;;;;;;;2.38;1.67;;;;;;;21.58;53.53;96368.00;10315105;28;20712;-26
2022/07/28 10:45:47;;;;;;;2.03;1.80;;;;;;;21.46;54.19;96365.66;10316785;28;20152;-26
2022/07/28 10:50:48;;;;;;;6.85;2.08;;;;;;;21.47;54.27;96364.78;10308461;28;20563;-26
2022/07/28 10:56:00;;;;;;;9.23;1.95;;;;;;;21.41;54.59;96357.25;10314593;28;20048;-26
2022/07/28 11:01:01;;;;;;;3.20;1.73;;;;;;;21.38;54.50;96357.31;10311869;28;20026;-26
2022/07/28 11:06:29;;;;;;;4.73;2.50;;;;;;;21.39;54.71;96369.16;10313562;28;20038;-27
2022/07/28 11:11:46;;;;;;;3.75;1.75;;;;;;;21.21;54.61;96317.75;10307433;28;20330;-27
2022/07/28 11:16:46;;;;;;;3.40;1.85;;;;;;;21.48;54.88;96348.63;10306140;28;20046;-25
2022/07/28 11:22:15;;;;;;;8.30;2.35;;;;;;;21.67;54.02;96351.72;10312850;28;20046;-26
2022/07/28 11:27:16;;;;;;;3.00;1.85;;;;;;;21.65;54.22;96351.75;10317426;28;20515;-26
2022/07/28 11:32:16;;;;;;;4.17;1.90;;;;;;;21.53;54.15;96336.66;10310353;28;20053;-25
2022/07/28 11:37:17;;;;;;;7.72;2.67;;;;;;;21.44;54.80;96334.28;10312676;28;20053;-25
2022/07/28 11:42:29;;;;;;;7.43;2.80;;;;;;;21.41;56.20;96334.31;10326810;28;20124;-26
2022/07/28 11:47:30;;;;;;;4.80;3.00;;;;;;;21.40;56.04;96326.72;10326477;28;20463;-27
2022/07/28 11:52:31;;;;;;;5.95;2.40;;;;;;;21.39;55.99;96328.41;10307854;28;20088;-26
2022/07/28 11:57:40;;;;;;;6.72;2.58;;;;;;;21.34;56.23;96320.03;10301860;28;20115;-26
2022/07/28 12:02:40;;;;;;;5.85;2.10;;;;;;;21.44;55.81;96329.19;10303086;28;20649;-26
2022/07/28 12:07:46;;;;;;;6.03;2.47;;;;;;;21.61;54.67;96313.59;10308766;28;21408;-26
2022/07/28 12:12:54;;;;;;;;;;;;;;;21.72;54.47;96320.19;10309803;28;20092;-27
2022/07/28 12:17:56;;;;;;;2.45;1.90;;;;;;;21.60;54.72;96305.13;10311155;28;19940;-26
2022/07/28 12:23:04;;;;;;;6.78;2.30;;;;;;;21.54;55.25;96307.78;10306950;28;20410;-27
2022/07/28 12:28:14;;;;;;;5.50;2.05;;;;;;;21.50;55.33;96311.25;10310849;28;20377;-25
2022/07/28 12:33:22;;;;;;;10.80;2.50;;;;;;;21.49;55.57;96304.47;10306419;28;20045;-25
2022/07/28 12:38:24;;;;;;;4.13;2.05;;;;;;;21.47;55.67;96296.00;10305015;28;20484;-27
2022/07/28 12:43:28;;;;;;;2.05;1.77;;;;;;;21.47;55.31;96290.91;10327906;28;20518;-25
2022/07/28 12:48:28;;;;;;;12.52;2.10;;;;;;;21.49;55.32;96289.19;10361828;28;20109;-24
2022/07/28 12:53:28;;;;;;;3.87;2.67;;;;;;;21.64;55.03;96283.81;10362351;28;20042;-26
2022/07/28 12:58:30;;;;;;;4.17;1.97;;;;;;;21.76;54.72;96283.63;10305434;28;20812;-24
2022/07/28 13:03:32;;;;;;;2.70;2.47;;;;;;;21.69;54.94;96276.94;10306623;28;20069;-25
2022/07/28 13:08:44;;;;;;;4.18;2.10;;;;;;;21.61;54.90;96263.50;10316698;28;20041;-24
2022/07/28 13:13:46;;;;;;;5.28;2.17;;;;;;;21.59;54.77;96262.69;10303582;28;20042;-25
2022/07/28 13:18:50;;;;;;;3.15;2.25;;;;;;;21.57;55.13;96259.31;10309042;28;20042;-25
2022/07/28 13:23:51;;;;;;;8.65;2.50;;;;;;;21.55;54.95;96255.97;10312015;28;20408;-27
2022/07/28 13:28:59;;;;;;;5.03;2.33;;;;;;;21.50;55.06;96250.13;10317649;28;20034;-26
2022/07/28 13:34:00;;;;;;;4.88;2.08;;;;;;;21.54;54.95;96255.97;10308228;28;20335;-25
2022/07/28 13:39:00;;;;;;;3.15;2.05;;;;;;;21.57;55.56;96251.66;10315757;28;20120;-27
2022/07/28 13:44:01;;;;;;;3.92;2.70;;;;;;;21.77;55.34;96244.50;10307759;28;20038;-25
2022/07/28 13:49:01;;;;;;;5.60;2.00;;;;;;;21.81;54.77;96246.13;10311874;28;20033;-25
2022/07/28 13:54:01;;;;;;;2.33;2.00;;;;;;;21.68;55.07;96234.50;10311979;28;20045;-26
2022/07/28 13:59:02;;;;;;;4.97;2.40;;;;;;;21.62;54.89;96249.03;10310001;28;20048;-25
2022/07/28 14:04:03;;;;;;;4.77;2.40;;;;;;;21.57;55.06;96244.03;10321315;28;20029;-25
2022/07/28 14:09:04;;;;;;;5.82;2.40;;;;;;;21.58;55.21;96242.31;10302219;28;20338;-27
2022/07/28 14:14:04;;;;;;;3.20;1.90;;;;;;;21.58;55.29;96242.31;10280196;28;21511;-25
2022/07/28 14:19:05;;;;;;;7.73;3.23;;;;;;;21.58;55.03;96238.09;10317753;28;20045;-25
2022/07/28 14:24:05;;;;;;;4.10;2.53;;;;;;;21.55;55.14;96222.84;10317968;28;20541;-25
2022/07/28 14:29:06;;;;;;;3.78;2.55;;;;;;;21.73;55.76;96230.13;10314918;28;20038;-25
2022/07/28 14:34:07;;;;;;;6.45;2.53;;;;;;;21.84;55.16;96220.59;10321601;28;20034;-25
2022/07/28 14:39:07;;;;;;;2.47;2.27;;;;;;;21.78;54.71;96223.25;10313877;28;20176;-25
2022/07/28 14:44:07;;;;;;;2.13;1.77;;;;;;;21.67;55.04;96215.00;10307209;28;20293;-28
2022/07/28 14:49:08;;;;;;;5.07;2.57;;;;;;;21.65;55.16;96221.00;10303496;28;20033;-26
2022/07/28 14:54:08;;;;;;;3.17;2.40;;;;;;;21.62;55.36;96219.31;10312173;28;20041;-26
2022/07/28 14:59:08;;;;;;;4.57;3.17;;;;;;;21.61;55.14;96222.72;10323041;28;20038;-26
2022/07/28 15:04:10;;;;;;;3.23;2.13;;;;;;;21.60;55.31;96220.19;10332426;28;20034;-25
2022/07/28 15:09:11;;;;;;;3.45;2.58;;;;;;;21.57;55.03;96226.19;10314200;28;20424;-25
2022/07/28 15:14:12;;;;;;;5.13;2.78;;;;;;;21.60;55.20;96225.28;10304930;28;20074;-26
2022/07/28 15:19:13;;;;;;;5.38;2.03;;;;;;;21.81;54.97;96219.81;10316209;28;20542;-26
2022/07/28 15:24:14;;;;;;;2.15;1.77;;;;;;;21.86;54.54;96223.09;10315716;28;20075;-25
2022/07/28 15:29:14;;;;;;;3.05;1.70;;;;;;;21.75;54.71;96223.31;10309945;28;20057;-27
2022/07/28 15:34:15;;;;;;;2.70;1.73;;;;;;;21.64;54.87;96211.66;10313907;28;20566;-27
2022/07/28 15:39:16;;;;;;;4.15;2.28;;;;;;;21.61;54.93;96206.59;10309254;28;20041;-27
2022/07/28 15:44:16;;;;;;;3.63;2.30;;;;;;;21.59;55.15;96210.88;10338933;28;20076;-26
2022/07/28 15:49:17;;;;;;;2.30;1.80;;;;;;;21.59;55.06;96208.34;10360823;28;20300;-26
2022/07/28 15:54:17;;;;;;;6.13;2.83;;;;;;;21.60;54.99;96210.00;10361391;28;20304;-26
2022/07/28 15:59:17;;;;;;;3.80;2.53;;;;;;;21.58;55.13;96199.88;10365666;28;20775;-26
2022/07/28 16:04:18;;;;;;;3.37;2.20;;;;;;;21.69;54.78;96210.69;10356573;28;20042;-25
2022/07/28 16:09:18;;;;;;;3.70;2.30;;;;;;;21.86;54.44;96218.84;10357934;28;20288;-25
2022/07/28 16:14:18;;;;;;;1.83;1.30;;;;;;;21.86;54.21;96223.09;10362323;28;20026;-26
2022/07/28 16:19:19;;;;;;;2.23;1.50;;;;;;;21.72;54.61;96218.28;10364366;28;20296;-26
2022/07/28 16:24:19;;;;;;;2.43;1.83;;;;;;;21.67;54.88;96217.56;10362098;28;20851;-27
2022/07/28 16:29:19;;;;;;;3.90;2.37;;;;;;;21.63;55.04;96209.97;10359360;28;20145;-25
2022/07/28 16:34:20;;;;;;;3.20;1.77;;;;;;;21.61;54.99;96201.50;10347825;28;20795;-25
2022/07/28 16:39:20;;;;;;;4.00;2.70;;;;;;;21.59;55.12;96204.09;10349758;28;20042;-26
2022/07/28 16:44:21;;;;;;;2.87;2.17;;;;;;;21.61;55.04;96206.59;10358444;28;20034;-26
2022/07/28 16:49:21;;;;;;;3.25;2.28;;;;;;;21.44;55.04;96189.13;10355944;28;20281;-27
2022/07/28 16:54:22;;;;;;;2.13;1.92;;;;;;;21.78;54.62;96213.06;10359688;28;20428;-26
2022/07/28 16:59:22;;;;;;;2.80;2.00;;;;;;;21.92;54.37;96228.91;10358345;28;20037;-27
2022/07/28 17:04:23;;;;;;;5.88;2.00;;;;;;;21.84;54.48;96224.84;10359472;28;20062;-26
2022/07/28 17:09:23;;;;;;;2.07;1.87;;;;;;;21.74;54.82;96223.34;10358374;28;20038;-27
2022/07/28 17:14:23;;;;;;;3.37;2.53;;;;;;;21.66;55.12;96235.41;10358953;28;20120;-27
2022/07/28 17:19:24;;;;;;;4.13;1.80;;;;;;;21.64;55.19;96243.03;10366494;28;20750;-26
2022/07/28 17:24:26;;;;;;;7.60;2.20;;;;;;;21.62;55.28;96241.38;10367857;28;20297;-26
2022/07/28 17:29:26;;;;;;;3.63;2.00;;;;;;;21.61;55.35;96238.00;10367306;28;20108;-25
2022/07/28 17:34:27;;;;;;;2.20;1.80;;;;;;;21.61;55.52;96247.34;10369960;28;20034;-26
2022/07/28 17:39:28;;;;;;;4.38;2.47;;;;;;;21.69;55.64;96265.91;10365689;28;20050;-26
2022/07/28 17:44:28;;;;;;;4.17;2.13;;;;;;;21.89;55.90;96300.31;10369046;28;20029;-26
2022/07/28 17:49:29;;;;;;;6.60;2.97;;;;;;;22.02;56.24;96332.34;10368845;28;20415;-25
2022/07/28 17:55:33;;;;;;;6.57;2.10;;;;;;;21.83;55.53;96313.22;10366030;28;20289;-26
2022/07/28 17:59:49;;;;;;;3.95;2.25;;;;;;;21.76;55.41;96334.56;10363202;28;20490;-26
2022/07/28 18:04:50;;;;;;;5.23;3.17;;;;;;;21.77;55.58;96350.69;10364329;28;20038;-32
2022/07/28 18:09:50;;;;;;;5.50;3.93;;;;;;;21.73;55.83;96333.78;10368795;28;20128;-26
2022/07/28 18:14:50;;;;;;;7.90;3.70;;;;;;;21.73;55.59;96341.44;10363504;28;20113;-25
2022/07/28 18:19:51;;;;;;;11.57;4.43;;;;;;;21.75;56.26;96357.53;10357058;28;20148;-26
2022/07/28 18:24:51;;;;;;;8.05;4.53;;;;;;;21.74;55.81;96361.78;10361951;28;20307;-27
2022/07/28 18:29:52;;;;;;;3.00;2.00;;;;;;;21.87;56.88;96359.84;10355642;28;20048;-27
2022/07/28 18:34:52;;;;;;;4.18;3.47;;;;;;;22.01;58.71;96365.53;10357483;28;20042;-27
2022/07/28 18:39:53;;;;;;;3.58;2.78;;;;;;;21.86;58.57;96374.31;10361447;28;20044;-27
2022/07/28 18:44:53;;;;;;;1.73;1.63;;;;;;;21.52;57.11;96373.19;10365641;28;20042;-27
2022/07/28 18:49:54;;;;;;;5.63;3.20;;;;;;;21.20;68.45;96364.41;10352779;28;20072;-27
2022/07/28 18:54:54;;;;;;;4.85;3.17;;;;;;;20.95;69.37;96358.88;10353369;28;20022;-26
2022/07/28 18:59:55;;;;;;;5.43;3.17;;;;;;;20.88;67.51;96371.72;10351855;28;20037;-26
2022/07/28 19:04:55;;;;;;;4.47;3.53;;;;;;;20.83;70.20;96370.91;10356664;28;20492;-26
2022/07/28 19:09:55;;;;;;;7.30;3.30;;;;;;;21.02;69.56;96370.66;10367553;28;20495;-27
2022/07/28 19:14:57;;;;;;;6.80;3.47;;;;;;;20.86;71.60;96375.97;10353677;28;20049;-26
2022/07/28 19:19:58;;;;;;;3.90;3.40;;;;;;;20.99;69.38;96380.84;10359570;28;20519;-27
2022/07/28 19:25:01;;;;;;;5.20;3.60;;;;;;;20.93;70.19;96383.50;10364879;28;20042;-27
2022/07/28 19:30:07;;;;;;;6.10;3.97;;;;;;;20.81;71.79;96398.91;10360234;28;20037;-27
2022/07/28 19:35:09;;;;;;;7.18;3.75;;;;;;;20.83;71.80;96399.75;10358367;28;20030;-27
2022/07/28 19:40:10;;;;;;;6.22;3.53;;;;;;;20.78;71.77;96404.06;10362410;28;20037;-26
2022/07/28 19:45:11;;;;;;;3.78;3.42;;;;;;;20.73;72.05;96415.97;10363884;28;20042;-27
2022/07/28 19:50:12;;;;;;;3.83;3.28;;;;;;;20.60;72.64;96414.47;10363951;28;20627;-27
2022/07/28 19:55:12;;;;;;;4.60;3.40;;;;;;;20.47;72.96;96420.56;10366509;28;20034;-26
2022/07/28 20:00:16;;;;;;;4.95;3.25;;;;;;;20.55;72.55;96415.41;10361506;28;20112;-26
2022/07/28 20:05:16;;;;;;;3.70;3.33;;;;;;;20.59;72.35;96422.97;10357513;28;20033;-26
2022/07/28 20:10:16;;;;;;;5.03;3.10;;;;;;;20.59;72.04;96415.34;10354583;28;20041;-27
2022/07/28 20:15:17;;;;;;;4.53;3.30;;;;;;;20.64;71.91;96431.38;10352809;28;20828;-26
2022/07/28 20:20:18;;;;;;;8.60;3.33;;;;;;;20.54;72.45;96439.97;10358980;28;20046;-26
2022/07/28 20:25:18;;;;;;;3.28;2.97;;;;;;;20.50;73.26;96440.91;10359468;28;20496;-26
2022/07/28 20:30:19;;;;;;;4.30;3.30;;;;;;;20.54;72.74;96459.50;10359739;28;20041;-26
2022/07/28 20:35:19;;;;;;;3.08;2.83;;;;;;;20.47;73.32;96465.53;10363128;28;20108;-27
2022/07/28 20:40:20;;;;;;;3.50;3.20;;;;;;;20.50;72.68;96462.94;10364424;28;20048;-27
2022/07/28 20:45:20;;;;;;;4.07;3.67;;;;;;;20.50;72.99;96468.03;10357568;28;20038;-27
2022/07/28 20:50:20;;;;;;;4.70;4.03;;;;;;;20.52;73.37;96456.97;10365746;28;20315;-27
2022/07/28 20:55:21;;;;;;;5.20;3.60;;;;;;;20.50;73.43;96455.31;10346321;28;20105;-27
2022/07/28 21:00:23;;;;;;;3.70;3.38;;;;;;;20.51;73.47;96465.47;10353581;28;20394;-26
2022/07/28 21:05:23;;;;;;;3.88;3.28;;;;;;;20.51;73.83;96464.63;10355795;28;20066;-27
2022/07/28 21:10:24;;;;;;;4.37;3.97;;;;;;;20.53;73.75;96475.59;10366916;28;20120;-26
2022/07/28 21:15:24;;;;;;;4.07;3.67;;;;;;;20.43;74.18;96479.97;10364982;28;20300;-27
2022/07/28 21:20:25;;;;;;;3.90;3.50;;;;;;;20.49;73.78;96476.50;10364894;28;20137;-27
2022/07/28 21:25:25;;;;;;;3.25;2.90;;;;;;;20.43;73.61;96474.88;10362677;28;20650;-27
2022/07/28 21:30:25;;;;;;;3.70;3.40;;;;;;;20.46;73.50;96486.72;10360087;28;20042;-27
2022/07/28 21:35:26;;;;;;;3.47;3.17;;;;;;;20.40;73.68;96482.53;10360248;28;20042;-27
2022/07/28 21:40:26;;;;;;;3.47;3.17;;;;;;;20.45;73.43;96485.88;10363872;28;20038;-26
2022/07/28 21:45:26;;;;;;;3.90;3.28;;;;;;;20.50;72.90;96488.38;10358091;28;20034;-26
2022/07/28 21:50:27;;;;;;;3.60;3.00;;;;;;;20.43;73.33;96482.53;10362100;28;20038;-27
2022/07/28 21:55:27;;;;;;;3.10;2.80;;;;;;;20.38;73.34;96487.66;10366962;28;20037;-27
2022/07/28 22:00:28;;;;;;;3.40;3.10;;;;;;;20.40;73.17;96492.69;10364806;28;20413;-27
2022/07/28 22:05:28;;;;;;;3.45;3.15;;;;;;;20.40;73.68;96495.25;10367608;28;20562;-27
2022/07/28 22:10:29;;;;;;;3.70;3.10;;;;;;;20.38;73.62;96497.84;10365388;28;20040;-26
2022/07/28 22:15:29;;;;;;;4.95;3.47;;;;;;;20.38;73.56;96493.59;10366893;28;20041;-26
2022/07/28 22:20:29;;;;;;;4.10;3.27;;;;;;;20.37;73.30;96498.69;10366929;28;20041;-25
2022/07/28 22:25:30;;;;;;;6.27;3.37;;;;;;;20.39;72.90;96497.81;10365159;28;20034;-26
2022/07/28 22:30:30;;;;;;;4.07;3.43;;;;;;;20.18;73.28;96466.72;10366289;28;20058;-28
2022/07/28 22:35:31;;;;;;;3.40;3.00;;;;;;;20.31;73.17;96491.97;10364157;28;20388;-27
2022/07/28 22:40:32;;;;;;;3.70;3.40;;;;;;;20.29;73.03;96482.69;10367580;28;20492;-26
2022/07/28 22:45:32;;;;;;;5.27;3.43;;;;;;;20.30;73.03;96489.44;10364556;28;20033;-27
2022/07/28 22:50:33;;;;;;;4.03;3.42;;;;;;;20.29;73.25;96492.84;10361287;28;20036;-26
2022/07/28 22:55:33;;;;;;;6.32;3.83;;;;;;;20.27;73.22;96492.03;10367764;28;20042;-26
2022/07/28 23:00:33;;;;;;;4.47;3.60;;;;;;;20.25;73.31;96491.22;10362939;28;20038;-27
2022/07/28 23:05:34;;;;;;;4.10;3.67;;;;;;;20.21;73.27;96487.00;10354623;28;20037;-26
2022/07/28 23:10:34;;;;;;;5.13;3.23;;;;;;;20.17;73.38;96482.81;10367102;28;20045;-26
2022/07/28 23:15:34;;;;;;;4.22;3.20;;;;;;;20.18;73.03;96487.03;10363348;28;20034;-26
2022/07/28 23:20:35;;;;;;;3.57;3.23;;;;;;;20.14;72.80;96480.28;10364465;28;20063;-26
2022/07/28 23:25:38;;;;;;;6.60;3.30;;;;;;;20.11;72.80;96491.31;10366230;28;20130;-26
2022/07/28 23:30:38;;;;;;;4.20;3.50;;;;;;;20.21;72.55;96481.91;10364860;28;20037;-26